sensor_id;sensor_type;location;lat;lon;timestamp;P1;durP1;ratioP1;P2;durP2;ratioP2
41255;SDS011;26989;45.524;10.938;2024-03-23T00:54:38;23.75;;;10.57;;
41255;SDS011;26989;45.524;10.938;2024-03-23T00:57:04;24.20;;;11.38;;
41255;SDS011;26989;45.524;10.938;2024-03-23T00:59:30;22.58;;;11.23;;
41255;SDS011;26989;45.524;10.938;2024-03-23T01:01:56;17.90;;;9.82;;
41255;SDS011;26989;45.524;10.938;2024-03-23T01:04:22;21.73;;;10.65;;
41255;SDS011;26989;45.524;10.938;2024-03-23T01:06:48;22.50;;;11.35;;
41255;SDS011;26989;45.524;10.938;2024-03-23T01:09:14;22.85;;;11.02;;
41255;SDS011;26989;45.524;10.938;2024-03-23T01:11:39;23.00;;;10.40;;
41255;SDS011;26989;45.524;10.938;2024-03-23T01:14:05;21.50;;;10.95;;
41255;SDS011;26989;45.524;10.938;2024-03-23T01:16:32;25.67;;;12.00;;
41255;SDS011;26989;45.524;10.938;2024-03-23T01:18:58;23.15;;;11.23;;
41255;SDS011;26989;45.524;10.938;2024-03-23T01:21:24;22.75;;;11.55;;
41255;SDS011;26989;45.524;10.938;2024-03-23T01:23:50;24.10;;;11.15;;
41255;SDS011;26989;45.524;10.938;2024-03-23T01:26:15;22.05;;;10.70;;
41255;SDS011;26989;45.524;10.938;2024-03-23T01:28:41;22.92;;;10.45;;
41255;SDS011;26989;45.524;10.938;2024-03-23T01:31:07;23.15;;;10.98;;
41255;SDS011;26989;45.524;10.938;2024-03-23T01:33:33;24.17;;;11.27;;
41255;SDS011;26989;45.524;10.938;2024-03-23T01:35:59;21.70;;;9.25;;
41255;SDS011;26989;45.524;10.938;2024-03-23T01:38:25;24.45;;;10.48;;
41255;SDS011;26989;45.524;10.938;2024-03-23T01:40:56;22.05;;;9.52;;
41255;SDS011;26989;45.524;10.938;2024-03-23T01:43:22;21.42;;;10.88;;
41255;SDS011;26989;45.524;10.938;2024-03-23T01:45:48;26.08;;;12.20;;
41255;SDS011;26989;45.524;10.938;2024-03-23T01:48:15;20.83;;;10.10;;
41255;SDS011;26989;45.524;10.938;2024-03-23T01:50:41;21.02;;;10.70;;
41255;SDS011;26989;45.524;10.938;2024-03-23T01:53:07;25.35;;;11.00;;
41255;SDS011;26989;45.524;10.938;2024-03-23T01:55:33;21.85;;;10.88;;
41255;SDS011;26989;45.524;10.938;2024-03-23T01:57:59;20.75;;;9.35;;
41255;SDS011;26989;45.524;10.938;2024-03-23T02:00:24;24.98;;;10.75;;
41255;SDS011;26989;45.524;10.938;2024-03-23T02:02:53;24.88;;;11.60;;
41255;SDS011;26989;45.524;10.938;2024-03-23T02:05:19;24.20;;;10.60;;
41255;SDS011;26989;45.524;10.938;2024-03-23T02:07:46;20.80;;;10.13;;
41255;SDS011;26989;45.524;10.938;2024-03-23T02:10:12;22.25;;;10.15;;
41255;SDS011;26989;45.524;10.938;2024-03-23T02:12:38;22.60;;;10.32;;
41255;SDS011;26989;45.524;10.938;2024-03-23T02:15:04;24.42;;;10.98;;
41255;SDS011;26989;45.524;10.938;2024-03-23T02:17:34;20.45;;;9.98;;
41255;SDS011;26989;45.524;10.938;2024-03-23T02:20:01;19.67;;;10.05;;
41255;SDS011;26989;45.524;10.938;2024-03-23T02:22:37;20.88;;;10.45;;
41255;SDS011;26989;45.524;10.938;2024-03-23T02:25:04;21.08;;;10.05;;
41255;SDS011;26989;45.524;10.938;2024-03-23T02:27:30;21.58;;;10.38;;
41255;SDS011;26989;45.524;10.938;2024-03-23T02:29:56;21.92;;;9.65;;
41255;SDS011;26989;45.524;10.938;2024-03-23T02:32:22;21.95;;;9.80;;
41255;SDS011;26989;45.524;10.938;2024-03-23T02:34:48;22.77;;;11.15;;
41255;SDS011;26989;45.524;10.938;2024-03-23T02:37:14;20.25;;;9.65;;
41255;SDS011;26989;45.524;10.938;2024-03-23T02:39:39;18.80;;;10.10;;
41255;SDS011;26989;45.524;10.938;2024-03-23T02:42:05;19.95;;;10.18;;
41255;SDS011;26989;45.524;10.938;2024-03-23T02:44:31;19.00;;;9.48;;
41255;SDS011;26989;45.524;10.938;2024-03-23T02:46:57;21.15;;;10.20;;
41255;SDS011;26989;45.524;10.938;2024-03-23T02:49:23;23.77;;;10.85;;
41255;SDS011;26989;45.524;10.938;2024-03-23T02:51:49;19.45;;;9.18;;
41255;SDS011;26989;45.524;10.938;2024-03-23T02:54:14;18.63;;;9.10;;
41255;SDS011;26989;45.524;10.938;2024-03-23T02:56:40;20.92;;;10.90;;
41255;SDS011;26989;45.524;10.938;2024-03-23T02:59:06;21.90;;;9.15;;
41255;SDS011;26989;45.524;10.938;2024-03-23T03:01:32;21.50;;;9.60;;
41255;SDS011;26989;45.524;10.938;2024-03-23T03:03:58;20.92;;;9.77;;
41255;SDS011;26989;45.524;10.938;2024-03-23T03:06:24;23.90;;;10.13;;
41255;SDS011;26989;45.524;10.938;2024-03-23T03:08:52;18.42;;;9.13;;
41255;SDS011;26989;45.524;10.938;2024-03-23T03:11:19;23.63;;;10.07;;
41255;SDS011;26989;45.524;10.938;2024-03-23T03:13:45;21.13;;;8.77;;
41255;SDS011;26989;45.524;10.938;2024-03-23T03:16:11;21.65;;;9.55;;
41255;SDS011;26989;45.524;10.938;2024-03-23T03:18:37;17.25;;;9.13;;
41255;SDS011;26989;45.524;10.938;2024-03-23T03:21:03;19.58;;;8.98;;
41255;SDS011;26989;45.524;10.938;2024-03-23T03:23:31;18.40;;;8.32;;
41255;SDS011;26989;45.524;10.938;2024-03-23T03:25:57;19.23;;;9.15;;
41255;SDS011;26989;45.524;10.938;2024-03-23T03:28:23;16.27;;;8.65;;
41255;SDS011;26989;45.524;10.938;2024-03-23T03:30:49;17.25;;;7.95;;
41255;SDS011;26989;45.524;10.938;2024-03-23T03:33:15;20.20;;;8.88;;
41255;SDS011;26989;45.524;10.938;2024-03-23T03:35:41;17.95;;;9.00;;
41255;SDS011;26989;45.524;10.938;2024-03-23T03:38:06;18.42;;;8.07;;
41255;SDS011;26989;45.524;10.938;2024-03-23T03:40:32;21.65;;;9.25;;
41255;SDS011;26989;45.524;10.938;2024-03-23T03:42:58;21.20;;;8.82;;
41255;SDS011;26989;45.524;10.938;2024-03-23T03:45:24;18.98;;;8.98;;
41255;SDS011;26989;45.524;10.938;2024-03-23T03:47:50;18.75;;;8.30;;
41255;SDS011;26989;45.524;10.938;2024-03-23T03:50:15;16.90;;;8.93;;
41255;SDS011;26989;45.524;10.938;2024-03-23T03:52:41;19.40;;;9.77;;
41255;SDS011;26989;45.524;10.938;2024-03-23T03:55:12;18.95;;;9.98;;
41255;SDS011;26989;45.524;10.938;2024-03-23T03:57:39;20.83;;;9.43;;
41255;SDS011;26989;45.524;10.938;2024-03-23T04:00:05;19.67;;;8.80;;
41255;SDS011;26989;45.524;10.938;2024-03-23T04:02:32;19.77;;;9.35;;
41255;SDS011;26989;45.524;10.938;2024-03-23T04:04:58;21.95;;;9.82;;
41255;SDS011;26989;45.524;10.938;2024-03-23T04:07:24;22.13;;;9.65;;
41255;SDS011;26989;45.524;10.938;2024-03-23T04:09:50;17.90;;;9.45;;
41255;SDS011;26989;45.524;10.938;2024-03-23T04:12:16;20.40;;;9.98;;
41255;SDS011;26989;45.524;10.938;2024-03-23T04:14:41;25.08;;;9.20;;
41255;SDS011;26989;45.524;10.938;2024-03-23T04:17:07;21.42;;;9.35;;
41255;SDS011;26989;45.524;10.938;2024-03-23T04:19:33;23.98;;;9.70;;
41255;SDS011;26989;45.524;10.938;2024-03-23T04:21:59;21.75;;;9.50;;
41255;SDS011;26989;45.524;10.938;2024-03-23T04:24:25;18.70;;;9.10;;
41255;SDS011;26989;45.524;10.938;2024-03-23T04:26:52;22.00;;;9.38;;
41255;SDS011;26989;45.524;10.938;2024-03-23T04:29:17;22.33;;;10.02;;
41255;SDS011;26989;45.524;10.938;2024-03-23T04:31:43;23.25;;;10.68;;
41255;SDS011;26989;45.524;10.938;2024-03-23T04:34:09;24.17;;;10.43;;
41255;SDS011;26989;45.524;10.938;2024-03-23T04:36:35;25.52;;;10.15;;
41255;SDS011;26989;45.524;10.938;2024-03-23T04:39:01;25.42;;;10.25;;
41255;SDS011;26989;45.524;10.938;2024-03-23T04:41:27;22.35;;;9.63;;
41255;SDS011;26989;45.524;10.938;2024-03-23T04:43:53;23.13;;;10.60;;
41255;SDS011;26989;45.524;10.938;2024-03-23T04:46:19;23.88;;;10.65;;
41255;SDS011;26989;45.524;10.938;2024-03-23T04:48:46;21.35;;;10.30;;
41255;SDS011;26989;45.524;10.938;2024-03-23T04:51:20;25.25;;;11.20;;
41255;SDS011;26989;45.524;10.938;2024-03-23T04:53:47;21.90;;;9.93;;
41255;SDS011;26989;45.524;10.938;2024-03-23T04:56:13;23.75;;;10.50;;
41255;SDS011;26989;45.524;10.938;2024-03-23T04:58:40;24.58;;;10.70;;
41255;SDS011;26989;45.524;10.938;2024-03-23T05:01:06;27.95;;;11.02;;
41255;SDS011;26989;45.524;10.938;2024-03-23T05:03:32;21.50;;;9.80;;
41255;SDS011;26989;45.524;10.938;2024-03-23T05:05:58;24.40;;;11.02;;
41255;SDS011;26989;45.524;10.938;2024-03-23T05:08:24;21.00;;;10.27;;
41255;SDS011;26989;45.524;10.938;2024-03-23T05:10:49;25.88;;;11.60;;
41255;SDS011;26989;45.524;10.938;2024-03-23T05:13:15;22.33;;;11.05;;
41255;SDS011;26989;45.524;10.938;2024-03-23T05:15:41;23.83;;;10.73;;
41255;SDS011;26989;45.524;10.938;2024-03-23T05:18:07;25.50;;;11.35;;
41255;SDS011;26989;45.524;10.938;2024-03-23T05:20:33;20.00;;;10.10;;
41255;SDS011;26989;45.524;10.938;2024-03-23T05:22:59;24.25;;;11.57;;
41255;SDS011;26989;45.524;10.938;2024-03-23T05:25:24;25.98;;;11.25;;
41255;SDS011;26989;45.524;10.938;2024-03-23T05:27:50;23.60;;;11.23;;
41255;SDS011;26989;45.524;10.938;2024-03-23T05:30:16;27.83;;;11.70;;
41255;SDS011;26989;45.524;10.938;2024-03-23T05:32:42;26.70;;;12.05;;
41255;SDS011;26989;45.524;10.938;2024-03-23T05:35:08;25.02;;;12.98;;
41255;SDS011;26989;45.524;10.938;2024-03-23T05:37:35;22.60;;;12.27;;
41255;SDS011;26989;45.524;10.938;2024-03-23T05:40:01;25.88;;;11.52;;
41255;SDS011;26989;45.524;10.938;2024-03-23T05:42:28;25.63;;;11.80;;
41255;SDS011;26989;45.524;10.938;2024-03-23T05:44:54;24.92;;;12.10;;
41255;SDS011;26989;45.524;10.938;2024-03-23T05:47:20;23.63;;;11.32;;
41255;SDS011;26989;45.524;10.938;2024-03-23T05:49:46;26.27;;;12.07;;
41255;SDS011;26989;45.524;10.938;2024-03-23T05:52:13;28.05;;;12.77;;
41255;SDS011;26989;45.524;10.938;2024-03-23T05:54:39;26.25;;;12.00;;
41255;SDS011;26989;45.524;10.938;2024-03-23T05:57:04;25.80;;;11.90;;
41255;SDS011;26989;45.524;10.938;2024-03-23T05:59:32;28.02;;;13.07;;
41255;SDS011;26989;45.524;10.938;2024-03-23T06:01:59;26.48;;;12.35;;
41255;SDS011;26989;45.524;10.938;2024-03-23T06:04:25;26.63;;;11.07;;
41255;SDS011;26989;45.524;10.938;2024-03-23T06:06:51;29.73;;;12.32;;
41255;SDS011;26989;45.524;10.938;2024-03-23T06:09:20;24.88;;;11.25;;
41255;SDS011;26989;45.524;10.938;2024-03-23T06:11:46;23.85;;;11.57;;
41255;SDS011;26989;45.524;10.938;2024-03-23T06:14:11;27.13;;;11.88;;
41255;SDS011;26989;45.524;10.938;2024-03-23T06:16:37;23.23;;;11.93;;
41255;SDS011;26989;45.524;10.938;2024-03-23T06:19:03;24.83;;;13.23;;
41255;SDS011;26989;45.524;10.938;2024-03-23T06:21:32;26.55;;;13.15;;
41255;SDS011;26989;45.524;10.938;2024-03-23T06:23:58;27.88;;;13.38;;
41255;SDS011;26989;45.524;10.938;2024-03-23T06:26:24;25.42;;;12.25;;
41255;SDS011;26989;45.524;10.938;2024-03-23T06:28:50;28.10;;;12.90;;
41255;SDS011;26989;45.524;10.938;2024-03-23T06:31:16;28.10;;;12.57;;
41255;SDS011;26989;45.524;10.938;2024-03-23T06:33:42;26.98;;;12.73;;
41255;SDS011;26989;45.524;10.938;2024-03-23T06:36:11;26.30;;;11.82;;
41255;SDS011;26989;45.524;10.938;2024-03-23T06:38:37;23.98;;;11.73;;
41255;SDS011;26989;45.524;10.938;2024-03-23T06:41:06;25.85;;;11.93;;
41255;SDS011;26989;45.524;10.938;2024-03-23T06:43:33;26.85;;;12.90;;
41255;SDS011;26989;45.524;10.938;2024-03-23T06:45:59;25.92;;;11.30;;
41255;SDS011;26989;45.524;10.938;2024-03-23T06:48:25;30.88;;;14.00;;
41255;SDS011;26989;45.524;10.938;2024-03-23T06:50:55;28.23;;;12.60;;
41255;SDS011;26989;45.524;10.938;2024-03-23T06:53:22;30.77;;;11.20;;
41255;SDS011;26989;45.524;10.938;2024-03-23T06:55:54;25.63;;;12.77;;
41255;SDS011;26989;45.524;10.938;2024-03-23T06:58:21;21.05;;;10.48;;
41255;SDS011;26989;45.524;10.938;2024-03-23T07:00:49;26.70;;;12.30;;
41255;SDS011;26989;45.524;10.938;2024-03-23T07:03:16;26.15;;;11.60;;
41255;SDS011;26989;45.524;10.938;2024-03-23T07:05:42;27.50;;;11.65;;
41255;SDS011;26989;45.524;10.938;2024-03-23T07:08:08;27.75;;;11.45;;
41255;SDS011;26989;45.524;10.938;2024-03-23T07:10:34;27.83;;;12.55;;
41255;SDS011;26989;45.524;10.938;2024-03-23T07:13:00;30.80;;;12.25;;
41255;SDS011;26989;45.524;10.938;2024-03-23T07:15:26;23.92;;;11.15;;
41255;SDS011;26989;45.524;10.938;2024-03-23T07:17:52;25.13;;;10.77;;
41255;SDS011;26989;45.524;10.938;2024-03-23T07:20:18;25.17;;;11.45;;
41255;SDS011;26989;45.524;10.938;2024-03-23T07:22:45;25.60;;;11.63;;
41255;SDS011;26989;45.524;10.938;2024-03-23T07:25:12;24.70;;;11.30;;
41255;SDS011;26989;45.524;10.938;2024-03-23T07:27:38;23.35;;;11.05;;
41255;SDS011;26989;45.524;10.938;2024-03-23T07:30:05;29.90;;;12.98;;
41255;SDS011;26989;45.524;10.938;2024-03-23T07:32:31;24.60;;;10.95;;
41255;SDS011;26989;45.524;10.938;2024-03-23T07:34:57;26.50;;;12.25;;
41255;SDS011;26989;45.524;10.938;2024-03-23T07:37:23;23.80;;;11.57;;
41255;SDS011;26989;45.524;10.938;2024-03-23T07:39:49;29.83;;;12.52;;
41255;SDS011;26989;45.524;10.938;2024-03-23T07:42:15;27.95;;;11.63;;
41255;SDS011;26989;45.524;10.938;2024-03-23T07:44:41;29.50;;;12.23;;
41255;SDS011;26989;45.524;10.938;2024-03-23T07:47:07;31.02;;;12.57;;
41255;SDS011;26989;45.524;10.938;2024-03-23T07:49:32;27.52;;;12.52;;
41255;SDS011;26989;45.524;10.938;2024-03-23T07:51:58;27.80;;;12.77;;
41255;SDS011;26989;45.524;10.938;2024-03-23T07:54:24;28.88;;;12.93;;
41255;SDS011;26989;45.524;10.938;2024-03-23T07:56:50;29.75;;;12.73;;
41255;SDS011;26989;45.524;10.938;2024-03-23T07:59:16;29.15;;;13.30;;
41255;SDS011;26989;45.524;10.938;2024-03-23T08:01:43;26.23;;;12.65;;
41255;SDS011;26989;45.524;10.938;2024-03-23T08:04:09;27.42;;;12.85;;
41255;SDS011;26989;45.524;10.938;2024-03-23T08:06:35;28.60;;;12.65;;
41255;SDS011;26989;45.524;10.938;2024-03-23T08:09:03;27.08;;;11.98;;
41255;SDS011;26989;45.524;10.938;2024-03-23T08:11:30;31.95;;;13.85;;
41255;SDS011;26989;45.524;10.938;2024-03-23T08:13:57;30.00;;;13.77;;
41255;SDS011;26989;45.524;10.938;2024-03-23T08:16:23;31.88;;;13.73;;
41255;SDS011;26989;45.524;10.938;2024-03-23T08:18:52;33.08;;;13.25;;
41255;SDS011;26989;45.524;10.938;2024-03-23T08:21:23;27.40;;;13.98;;
41255;SDS011;26989;45.524;10.938;2024-03-23T08:23:51;35.88;;;13.70;;
41255;SDS011;26989;45.524;10.938;2024-03-23T08:26:17;28.95;;;13.68;;
41255;SDS011;26989;45.524;10.938;2024-03-23T08:28:43;26.35;;;13.25;;
41255;SDS011;26989;45.524;10.938;2024-03-23T08:31:09;27.63;;;13.43;;
41255;SDS011;26989;45.524;10.938;2024-03-23T08:33:37;28.98;;;12.27;;
41255;SDS011;26989;45.524;10.938;2024-03-23T08:36:04;30.20;;;13.02;;
41255;SDS011;26989;45.524;10.938;2024-03-23T08:38:33;24.05;;;11.38;;
41255;SDS011;26989;45.524;10.938;2024-03-23T08:41:03;70.28;;;28.90;;
41255;SDS011;26989;45.524;10.938;2024-03-23T08:43:33;39.92;;;16.60;;
41255;SDS011;26989;45.524;10.938;2024-03-23T08:46:09;27.20;;;12.65;;
41255;SDS011;26989;45.524;10.938;2024-03-23T08:48:37;30.95;;;14.00;;
41255;SDS011;26989;45.524;10.938;2024-03-23T08:51:04;28.90;;;14.20;;
41255;SDS011;26989;45.524;10.938;2024-03-23T08:53:31;38.65;;;21.65;;
41255;SDS011;26989;45.524;10.938;2024-03-23T08:55:58;28.35;;;13.38;;
41255;SDS011;26989;45.524;10.938;2024-03-23T08:58:25;27.27;;;15.02;;
41255;SDS011;26989;45.524;10.938;2024-03-23T09:00:52;29.73;;;13.52;;
41255;SDS011;26989;45.524;10.938;2024-03-23T09:03:18;31.75;;;14.23;;
41255;SDS011;26989;45.524;10.938;2024-03-23T09:05:44;36.53;;;15.38;;
41255;SDS011;26989;45.524;10.938;2024-03-23T09:08:10;24.38;;;14.02;;
41255;SDS011;26989;45.524;10.938;2024-03-23T09:10:38;24.02;;;14.95;;
41255;SDS011;26989;45.524;10.938;2024-03-23T09:13:05;29.88;;;13.93;;
41255;SDS011;26989;45.524;10.938;2024-03-23T09:15:32;31.38;;;16.83;;
41255;SDS011;26989;45.524;10.938;2024-03-23T09:17:59;29.10;;;13.50;;
41255;SDS011;26989;45.524;10.938;2024-03-23T09:20:25;28.65;;;14.35;;
41255;SDS011;26989;45.524;10.938;2024-03-23T09:22:52;28.98;;;13.60;;
41255;SDS011;26989;45.524;10.938;2024-03-23T09:25:17;28.95;;;15.82;;
41255;SDS011;26989;45.524;10.938;2024-03-23T09:27:45;28.70;;;15.85;;
41255;SDS011;26989;45.524;10.938;2024-03-23T09:32:43;32.00;;;15.25;;
41255;SDS011;26989;45.524;10.938;2024-03-23T09:35:10;32.45;;;16.42;;
41255;SDS011;26989;45.524;10.938;2024-03-23T09:37:36;29.67;;;15.95;;
41255;SDS011;26989;45.524;10.938;2024-03-23T09:40:08;31.67;;;17.58;;
41255;SDS011;26989;45.524;10.938;2024-03-23T09:42:35;31.73;;;16.27;;
41255;SDS011;26989;45.524;10.938;2024-03-23T09:45:01;27.88;;;15.80;;
41255;SDS011;26989;45.524;10.938;2024-03-23T09:47:27;31.27;;;15.18;;
41255;SDS011;26989;45.524;10.938;2024-03-23T09:49:56;30.85;;;16.67;;
41255;SDS011;26989;45.524;10.938;2024-03-23T09:52:22;46.78;;;17.67;;
41255;SDS011;26989;45.524;10.938;2024-03-23T09:55:03;31.05;;;16.40;;
41255;SDS011;26989;45.524;10.938;2024-03-23T09:57:29;32.10;;;16.65;;
41255;SDS011;26989;45.524;10.938;2024-03-23T09:59:55;40.47;;;16.65;;
41255;SDS011;26989;45.524;10.938;2024-03-23T10:02:23;30.35;;;16.42;;
41255;SDS011;26989;45.524;10.938;2024-03-23T10:04:51;31.30;;;16.70;;
41255;SDS011;26989;45.524;10.938;2024-03-23T10:07:21;30.00;;;16.98;;
41255;SDS011;26989;45.524;10.938;2024-03-23T10:09:47;33.95;;;17.60;;
41255;SDS011;26989;45.524;10.938;2024-03-23T10:12:15;30.92;;;16.30;;
41255;SDS011;26989;45.524;10.938;2024-03-23T10:14:42;30.15;;;15.88;;
41255;SDS011;26989;45.524;10.938;2024-03-23T10:17:12;33.80;;;17.35;;
41255;SDS011;26989;45.524;10.938;2024-03-23T10:19:48;31.17;;;16.67;;
41255;SDS011;26989;45.524;10.938;2024-03-23T10:24:45;34.13;;;17.55;;
41255;SDS011;26989;45.524;10.938;2024-03-23T10:27:15;31.45;;;17.58;;
41255;SDS011;26989;45.524;10.938;2024-03-23T10:29:43;30.65;;;16.02;;
41255;SDS011;26989;45.524;10.938;2024-03-23T10:32:16;32.88;;;16.85;;
41255;SDS011;26989;45.524;10.938;2024-03-23T10:34:43;27.60;;;14.85;;
41255;SDS011;26989;45.524;10.938;2024-03-23T10:37:11;25.55;;;15.00;;
41255;SDS011;26989;45.524;10.938;2024-03-23T10:39:37;27.70;;;15.30;;
41255;SDS011;26989;45.524;10.938;2024-03-23T10:42:05;23.92;;;14.18;;
41255;SDS011;26989;45.524;10.938;2024-03-23T10:44:40;30.75;;;16.13;;
41255;SDS011;26989;45.524;10.938;2024-03-23T10:47:06;30.50;;;14.90;;
41255;SDS011;26989;45.524;10.938;2024-03-23T10:49:32;29.27;;;14.77;;
41255;SDS011;26989;45.524;10.938;2024-03-23T10:52:00;31.50;;;15.02;;
41255;SDS011;26989;45.524;10.938;2024-03-23T10:54:30;31.38;;;15.15;;
41255;SDS011;26989;45.524;10.938;2024-03-23T10:57:06;30.08;;;14.82;;
41255;SDS011;26989;45.524;10.938;2024-03-23T10:59:38;26.08;;;14.02;;
41255;SDS011;26989;45.524;10.938;2024-03-23T11:02:06;25.10;;;14.30;;
41255;SDS011;26989;45.524;10.938;2024-03-23T11:07:02;27.20;;;13.73;;
41255;SDS011;26989;45.524;10.938;2024-03-23T11:14:48;24.85;;;14.18;;
41255;SDS011;26989;45.524;10.938;2024-03-23T11:17:22;27.75;;;14.18;;
41255;SDS011;26989;45.524;10.938;2024-03-23T11:25:13;26.50;;;11.73;;
41255;SDS011;26989;45.524;10.938;2024-03-23T11:27:40;29.60;;;13.18;;
41255;SDS011;26989;45.524;10.938;2024-03-23T11:30:12;22.20;;;11.70;;
41255;SDS011;26989;45.524;10.938;2024-03-23T11:32:39;20.52;;;11.32;;
41255;SDS011;26989;45.524;10.938;2024-03-23T11:35:05;20.20;;;11.27;;
41255;SDS011;26989;45.524;10.938;2024-03-23T11:37:31;21.38;;;11.70;;
41255;SDS011;26989;45.524;10.938;2024-03-23T11:39:57;24.67;;;12.93;;
41255;SDS011;26989;45.524;10.938;2024-03-23T11:42:23;22.45;;;11.55;;
41255;SDS011;26989;45.524;10.938;2024-03-23T11:44:49;19.20;;;10.38;;
41255;SDS011;26989;45.524;10.938;2024-03-23T11:47:14;23.23;;;12.10;;
41255;SDS011;26989;45.524;10.938;2024-03-23T11:49:40;19.98;;;11.20;;
41255;SDS011;26989;45.524;10.938;2024-03-23T11:52:06;24.95;;;14.07;;
41255;SDS011;26989;45.524;10.938;2024-03-23T11:54:35;22.52;;;12.73;;
41255;SDS011;26989;45.524;10.938;2024-03-23T11:57:02;22.60;;;13.48;;
41255;SDS011;26989;45.524;10.938;2024-03-23T12:02:09;24.98;;;13.75;;
41255;SDS011;26989;45.524;10.938;2024-03-23T12:04:37;23.05;;;13.27;;
41255;SDS011;26989;45.524;10.938;2024-03-23T12:07:15;24.75;;;14.40;;
41255;SDS011;26989;45.524;10.938;2024-03-23T12:09:45;24.75;;;14.13;;
41255;SDS011;26989;45.524;10.938;2024-03-23T12:12:27;23.90;;;14.13;;
41255;SDS011;26989;45.524;10.938;2024-03-23T12:15:06;22.40;;;12.35;;
41255;SDS011;26989;45.524;10.938;2024-03-23T12:17:34;21.30;;;12.98;;
41255;SDS011;26989;45.524;10.938;2024-03-23T12:20:00;21.73;;;13.80;;
41255;SDS011;26989;45.524;10.938;2024-03-23T12:22:27;20.13;;;12.50;;
41255;SDS011;26989;45.524;10.938;2024-03-23T12:24:54;22.80;;;12.35;;
41255;SDS011;26989;45.524;10.938;2024-03-23T12:27:20;22.65;;;13.52;;
41255;SDS011;26989;45.524;10.938;2024-03-23T12:29:46;19.67;;;12.30;;
41255;SDS011;26989;45.524;10.938;2024-03-23T12:32:13;20.98;;;11.77;;
41255;SDS011;26989;45.524;10.938;2024-03-23T12:34:39;20.05;;;12.25;;
41255;SDS011;26989;45.524;10.938;2024-03-23T12:37:06;23.20;;;14.13;;
41255;SDS011;26989;45.524;10.938;2024-03-23T12:39:32;24.42;;;13.23;;
41255;SDS011;26989;45.524;10.938;2024-03-23T12:42:00;24.95;;;13.48;;
41255;SDS011;26989;45.524;10.938;2024-03-23T12:44:28;22.08;;;13.88;;
41255;SDS011;26989;45.524;10.938;2024-03-23T12:46:54;22.52;;;14.40;;
41255;SDS011;26989;45.524;10.938;2024-03-23T12:49:20;25.35;;;14.25;;
41255;SDS011;26989;45.524;10.938;2024-03-23T12:51:47;24.70;;;12.77;;
41255;SDS011;26989;45.524;10.938;2024-03-23T12:54:19;22.33;;;13.73;;
41255;SDS011;26989;45.524;10.938;2024-03-23T12:56:45;22.52;;;13.63;;
41255;SDS011;26989;45.524;10.938;2024-03-23T12:59:11;25.35;;;15.13;;
41255;SDS011;26989;45.524;10.938;2024-03-23T13:01:38;24.60;;;15.23;;
41255;SDS011;26989;45.524;10.938;2024-03-23T13:05:22;29.35;;;17.90;;
41255;SDS011;26989;45.524;10.938;2024-03-23T13:07:48;25.13;;;15.05;;
41255;SDS011;26989;45.524;10.938;2024-03-23T13:10:14;22.52;;;14.57;;
41255;SDS011;26989;45.524;10.938;2024-03-23T13:12:41;24.58;;;13.40;;
41255;SDS011;26989;45.524;10.938;2024-03-23T13:15:08;21.10;;;13.02;;
41255;SDS011;26989;45.524;10.938;2024-03-23T13:17:34;21.33;;;12.30;;
41255;SDS011;26989;45.524;10.938;2024-03-23T13:20:00;24.92;;;14.45;;
41255;SDS011;26989;45.524;10.938;2024-03-23T13:22:25;29.65;;;15.35;;
41255;SDS011;26989;45.524;10.938;2024-03-23T13:24:51;22.00;;;13.52;;
41255;SDS011;26989;45.524;10.938;2024-03-23T13:27:17;19.08;;;12.35;;
41255;SDS011;26989;45.524;10.938;2024-03-23T13:29:44;21.85;;;12.25;;
41255;SDS011;26989;45.524;10.938;2024-03-23T13:32:12;19.23;;;11.05;;
41255;SDS011;26989;45.524;10.938;2024-03-23T13:34:38;17.83;;;10.35;;
41255;SDS011;26989;45.524;10.938;2024-03-23T13:37:04;19.88;;;11.32;;
41255;SDS011;26989;45.524;10.938;2024-03-23T13:39:30;20.13;;;11.80;;
41255;SDS011;26989;45.524;10.938;2024-03-23T13:41:56;22.23;;;11.98;;
41255;SDS011;26989;45.524;10.938;2024-03-23T13:44:22;23.73;;;11.82;;
41255;SDS011;26989;45.524;10.938;2024-03-23T13:46:48;23.95;;;12.48;;
41255;SDS011;26989;45.524;10.938;2024-03-23T13:49:30;20.13;;;11.40;;
41255;SDS011;26989;45.524;10.938;2024-03-23T13:51:57;22.25;;;11.65;;
41255;SDS011;26989;45.524;10.938;2024-03-23T13:54:25;21.70;;;13.23;;
41255;SDS011;26989;45.524;10.938;2024-03-23T13:56:51;20.02;;;12.85;;
41255;SDS011;26989;45.524;10.938;2024-03-23T13:59:18;26.75;;;14.38;;
41255;SDS011;26989;45.524;10.938;2024-03-23T14:01:44;25.13;;;13.50;;
41255;SDS011;26989;45.524;10.938;2024-03-23T14:04:13;22.23;;;14.68;;
41255;SDS011;26989;45.524;10.938;2024-03-23T14:06:42;22.25;;;13.45;;
41255;SDS011;26989;45.524;10.938;2024-03-23T14:09:10;25.23;;;14.52;;
41255;SDS011;26989;45.524;10.938;2024-03-23T14:11:37;24.48;;;14.35;;
41255;SDS011;26989;45.524;10.938;2024-03-23T14:14:03;21.17;;;13.00;;
41255;SDS011;26989;45.524;10.938;2024-03-23T14:16:29;21.75;;;13.13;;
41255;SDS011;26989;45.524;10.938;2024-03-23T14:18:56;24.48;;;14.30;;
41255;SDS011;26989;45.524;10.938;2024-03-23T14:21:22;24.70;;;15.00;;
41255;SDS011;26989;45.524;10.938;2024-03-23T14:23:48;22.27;;;13.52;;
41255;SDS011;26989;45.524;10.938;2024-03-23T14:26:14;22.27;;;13.88;;
41255;SDS011;26989;45.524;10.938;2024-03-23T14:28:39;24.73;;;14.40;;
41255;SDS011;26989;45.524;10.938;2024-03-23T14:31:06;23.45;;;14.07;;
41255;SDS011;26989;45.524;10.938;2024-03-23T14:33:41;24.73;;;13.80;;
41255;SDS011;26989;45.524;10.938;2024-03-23T14:36:12;24.90;;;13.77;;
41255;SDS011;26989;45.524;10.938;2024-03-23T14:38:40;21.40;;;13.52;;
41255;SDS011;26989;45.524;10.938;2024-03-23T14:41:06;27.35;;;14.32;;
41255;SDS011;26989;45.524;10.938;2024-03-23T14:43:32;23.88;;;14.18;;
41255;SDS011;26989;45.524;10.938;2024-03-23T14:46:07;22.98;;;13.52;;
41255;SDS011;26989;45.524;10.938;2024-03-23T14:48:41;21.15;;;13.70;;
41255;SDS011;26989;45.524;10.938;2024-03-23T14:51:09;23.15;;;13.40;;
41255;SDS011;26989;45.524;10.938;2024-03-23T14:53:45;26.38;;;15.20;;
41255;SDS011;26989;45.524;10.938;2024-03-23T14:56:11;20.73;;;13.60;;
41255;SDS011;26989;45.524;10.938;2024-03-23T14:58:40;23.80;;;14.25;;
41255;SDS011;26989;45.524;10.938;2024-03-23T15:01:07;22.80;;;14.88;;
41255;SDS011;26989;45.524;10.938;2024-03-23T15:03:37;25.25;;;14.82;;
41255;SDS011;26989;45.524;10.938;2024-03-23T15:06:05;22.70;;;13.75;;
41255;SDS011;26989;45.524;10.938;2024-03-23T15:08:31;23.08;;;13.35;;
41255;SDS011;26989;45.524;10.938;2024-03-23T15:11:00;23.15;;;13.30;;
41255;SDS011;26989;45.524;10.938;2024-03-23T15:13:31;20.50;;;12.60;;
41255;SDS011;26989;45.524;10.938;2024-03-23T15:16:00;23.08;;;13.02;;
41255;SDS011;26989;45.524;10.938;2024-03-23T15:18:29;25.27;;;13.50;;
41255;SDS011;26989;45.524;10.938;2024-03-23T15:20:59;27.27;;;13.73;;
41255;SDS011;26989;45.524;10.938;2024-03-23T15:23:29;24.73;;;12.77;;
41255;SDS011;26989;45.524;10.938;2024-03-23T15:25:59;23.65;;;12.98;;